createdAt,value
2024-04-19T00:00:21.971Z,606.00
2024-04-19T00:01:21.961Z,616.00
2024-04-19T00:02:21.918Z,615.00
2024-04-19T00:03:22.030Z,611.00
2024-04-19T00:04:21.996Z,611.00
2024-04-19T00:05:21.891Z,622.00
2024-04-19T00:06:21.884Z,608.00
2024-04-19T00:07:21.856Z,614.00
2024-04-19T00:08:22.760Z,610.00
2024-04-19T00:09:21.901Z,617.00
2024-04-19T00:10:21.851Z,623.00
2024-04-19T00:11:21.894Z,613.00
2024-04-19T00:12:21.914Z,618.00
2024-04-19T00:13:21.835Z,623.00
2024-04-19T00:14:21.795Z,627.00
2024-04-19T00:15:21.846Z,620.00
2024-04-19T00:16:21.783Z,621.00
2024-04-19T00:17:21.777Z,622.00
2024-04-19T00:18:21.832Z,628.00
2024-04-19T00:19:22.815Z,618.00
2024-04-19T00:20:22.291Z,622.00
2024-04-19T00:21:23.278Z,623.00
2024-04-19T00:22:21.750Z,617.00
2024-04-19T00:23:21.743Z,623.00
2024-04-19T00:24:21.751Z,624.00
2024-04-19T00:25:21.726Z,616.00
2024-04-19T00:26:21.755Z,624.00
2024-04-19T00:27:21.755Z,624.00
2024-04-19T00:28:21.769Z,624.00
2024-04-19T00:29:21.803Z,624.00
2024-04-19T00:30:21.781Z,629.00
2024-04-19T00:31:22.361Z,627.00
2024-04-19T00:32:21.761Z,625.00
2024-04-19T00:33:21.823Z,628.00
2024-04-19T00:34:21.765Z,623.00
2024-04-19T00:35:21.674Z,624.00
2024-04-19T00:36:21.738Z,629.00
2024-04-19T00:37:21.670Z,628.00
2024-04-19T00:38:21.722Z,622.00
2024-04-19T00:39:21.740Z,628.00
2024-04-19T00:40:21.700Z,621.00
2024-04-19T00:41:21.662Z,636.00
2024-04-19T00:42:21.672Z,633.00
2024-04-19T00:43:21.654Z,631.00
2024-04-19T00:44:21.678Z,626.00
2024-04-19T00:45:21.723Z,632.00
2024-04-19T00:46:21.700Z,632.00
2024-04-19T00:47:21.661Z,627.00
2024-04-19T00:48:21.759Z,633.00
2024-04-19T00:49:21.631Z,631.00
2024-04-19T00:50:21.657Z,631.00
2024-04-19T00:51:21.676Z,632.00
2024-04-19T00:52:21.628Z,631.00
2024-04-19T00:53:21.687Z,627.00
2024-04-19T00:54:21.619Z,632.00
2024-04-19T00:55:21.598Z,634.00
2024-04-19T00:56:21.648Z,633.00
2024-04-19T00:57:21.609Z,635.00
2024-04-19T00:58:21.607Z,635.00
2024-04-19T00:59:21.570Z,629.00
2024-04-19T01:00:21.588Z,635.00
2024-04-19T01:01:21.637Z,630.00
2024-04-19T01:02:21.586Z,637.00
2024-04-19T01:03:22.380Z,632.00
2024-04-19T01:04:21.581Z,635.00
2024-04-19T01:05:21.509Z,636.00
2024-04-19T01:06:21.524Z,637.00
2024-04-19T01:07:21.486Z,632.00
2024-04-19T01:08:21.459Z,629.00
2024-04-19T01:09:22.314Z,632.00
2024-04-19T01:10:21.462Z,636.00
2024-04-19T01:11:22.280Z,648.00
2024-04-19T01:12:21.415Z,633.00
2024-04-19T01:13:22.780Z,631.00
2024-04-19T01:14:21.389Z,634.00
2024-04-19T01:15:21.386Z,634.00
2024-04-19T01:16:21.362Z,632.00
2024-04-19T01:17:21.417Z,639.00
2024-04-19T01:18:21.473Z,628.00
2024-04-19T01:19:21.326Z,629.00
2024-04-19T01:20:21.313Z,627.00
2024-04-19T01:21:21.311Z,630.00
2024-04-19T01:22:21.311Z,629.00
2024-04-19T01:23:21.297Z,629.00
2024-04-19T01:24:21.326Z,629.00
2024-04-19T01:25:21.255Z,629.00
2024-04-19T01:26:21.255Z,629.00
2024-04-19T01:27:21.264Z,630.00
2024-04-19T01:28:21.281Z,633.00
2024-04-19T01:29:21.220Z,634.00
2024-04-19T01:30:21.251Z,629.00
2024-04-19T01:31:21.189Z,631.00
2024-04-19T01:32:21.227Z,635.00
2024-04-19T01:33:22.096Z,632.00
2024-04-19T01:34:21.379Z,632.00
2024-04-19T01:35:21.158Z,644.00
2024-04-19T01:36:21.327Z,634.00
2024-04-19T01:37:21.132Z,644.00
2024-04-19T01:38:21.208Z,637.00
2024-04-19T01:39:21.162Z,637.00
2024-04-19T01:40:21.208Z,646.00
2024-04-19T01:41:21.105Z,637.00
2024-04-19T01:42:21.099Z,635.00
2024-04-19T01:43:21.094Z,628.00
2024-04-19T01:44:21.089Z,635.00
2024-04-19T01:45:21.093Z,643.00
2024-04-19T01:46:21.090Z,638.00
2024-04-19T01:47:21.079Z,641.00
2024-04-19T01:48:21.069Z,646.00
2024-04-19T01:49:21.022Z,643.00
2024-04-19T01:50:21.115Z,641.00
2024-04-19T01:51:21.009Z,640.00
2024-04-19T01:52:20.992Z,643.00
2024-04-19T01:53:21.033Z,635.00
2024-04-19T01:54:21.038Z,640.00
2024-04-19T01:55:20.956Z,643.00
2024-04-19T01:56:20.958Z,639.00
2024-04-19T01:57:20.940Z,640.00
2024-04-19T01:58:20.946Z,631.00
2024-04-19T01:59:21.827Z,641.00
2024-04-19T02:00:20.923Z,643.00
2024-04-19T02:01:20.958Z,639.00
2024-04-19T02:02:20.906Z,639.00
2024-04-19T02:03:20.902Z,639.00
2024-04-19T02:04:21.848Z,639.00
2024-04-19T02:05:20.862Z,639.00
2024-04-19T02:06:20.851Z,640.00
2024-04-19T02:07:20.816Z,640.00
2024-04-19T02:08:20.897Z,638.00
2024-04-19T02:09:20.876Z,643.00
2024-04-19T02:10:20.776Z,648.00
2024-04-19T02:11:20.861Z,647.00
2024-04-19T02:12:20.998Z,648.00
2024-04-19T02:13:20.756Z,648.00
2024-04-19T02:14:20.720Z,649.00
2024-04-19T02:15:20.803Z,649.00
2024-04-19T02:16:20.684Z,635.00
2024-04-19T02:17:20.709Z,645.00
2024-04-19T02:18:20.782Z,639.00
2024-04-19T02:19:20.632Z,649.00
2024-04-19T02:20:20.655Z,642.00
2024-04-19T02:21:20.650Z,640.00
2024-04-19T02:22:20.604Z,644.00
2024-04-19T02:23:20.600Z,651.00
2024-04-19T02:24:20.637Z,647.00
2024-04-19T02:25:20.576Z,645.00
2024-04-19T02:26:20.586Z,647.00
2024-04-19T02:27:20.569Z,639.00
2024-04-19T02:28:20.559Z,649.00
2024-04-19T02:29:20.547Z,647.00
2024-04-19T02:30:20.565Z,643.00
2024-04-19T02:31:20.523Z,633.00
2024-04-19T02:32:20.543Z,637.00
2024-04-19T02:33:20.610Z,651.00
2024-04-19T02:34:20.589Z,647.00
2024-04-19T02:35:20.500Z,643.00
2024-04-19T02:36:20.478Z,639.00
2024-04-19T02:37:20.470Z,645.00
2024-04-19T02:38:20.463Z,636.00
2024-04-19T02:39:20.469Z,648.00
2024-04-19T02:40:20.435Z,640.00
2024-04-19T02:41:20.434Z,637.00
2024-04-19T02:42:20.466Z,641.00
2024-04-19T02:43:20.406Z,637.00
2024-04-19T02:44:20.399Z,653.00
2024-04-19T02:45:20.393Z,639.00
2024-04-19T02:46:20.439Z,637.00
2024-04-19T02:47:20.373Z,635.00
2024-04-19T02:48:20.376Z,643.00
2024-04-19T02:49:20.378Z,642.00
2024-04-19T02:50:20.350Z,643.00
2024-04-19T02:51:20.420Z,642.00
2024-04-19T02:52:20.339Z,645.00
2024-04-19T02:53:20.361Z,647.00
2024-04-19T02:54:20.340Z,639.00
2024-04-19T02:55:20.300Z,643.00
2024-04-19T02:56:20.288Z,644.00
2024-04-19T02:57:20.300Z,635.00
2024-04-19T02:58:20.306Z,640.00
2024-04-19T02:59:20.267Z,639.00
2024-04-19T03:00:20.301Z,634.00
2024-04-19T03:01:20.256Z,631.00
2024-04-19T03:02:20.244Z,635.00
2024-04-19T03:03:20.267Z,628.00
2024-04-19T03:04:20.254Z,626.00
2024-04-19T03:05:20.215Z,614.00
2024-04-19T03:06:20.259Z,618.00
2024-04-19T03:07:20.222Z,613.00
2024-04-19T03:08:20.184Z,610.00
2024-04-19T03:09:20.194Z,616.00
2024-04-19T03:10:20.159Z,603.00
2024-04-19T03:11:20.157Z,601.00
2024-04-19T03:12:20.257Z,611.00
2024-04-19T03:13:20.144Z,609.00
2024-04-19T03:14:20.094Z,600.00
2024-04-19T03:15:20.161Z,608.00
2024-04-19T03:16:20.076Z,604.00
2024-04-19T03:17:20.129Z,610.00
2024-04-19T03:18:20.103Z,606.00
2024-04-19T03:19:20.035Z,612.00
2024-04-19T03:20:20.044Z,606.00
2024-04-19T03:21:20.051Z,597.00
2024-04-19T03:22:20.031Z,600.00
2024-04-19T03:23:20.052Z,600.00
2024-04-19T03:24:20.078Z,608.00
2024-04-19T03:25:20.032Z,607.00
2024-04-19T03:26:20.005Z,602.00
2024-04-19T03:27:20.047Z,600.00
2024-04-19T03:28:20.107Z,601.00
2024-04-19T03:29:20.041Z,592.00
2024-04-19T03:30:19.979Z,576.00
2024-04-19T03:31:19.946Z,553.00
2024-04-19T03:32:19.933Z,528.00
2024-04-19T03:33:20.160Z,498.00
2024-04-19T03:34:19.934Z,477.00
2024-04-19T03:35:19.889Z,451.00
2024-04-19T03:36:19.945Z,459.00
2024-04-19T03:37:19.871Z,437.00
2024-04-19T03:38:19.907Z,412.00
2024-04-19T03:39:19.948Z,400.00
2024-04-19T03:40:19.845Z,400.00
2024-04-19T03:41:19.820Z,400.00
2024-04-19T03:42:19.891Z,400.00
2024-04-19T03:43:19.815Z,400.00
2024-04-19T03:44:19.804Z,400.00
2024-04-19T03:45:19.822Z,411.00
2024-04-19T03:46:19.790Z,431.00
2024-04-19T03:47:19.866Z,448.00
2024-04-19T03:48:19.894Z,471.00
2024-04-19T03:49:19.772Z,502.00
2024-04-19T03:50:19.765Z,520.00
2024-04-19T03:51:19.790Z,538.00
2024-04-19T03:52:19.744Z,558.00
2024-04-19T03:53:19.756Z,582.00
2024-04-19T03:54:19.818Z,599.00
2024-04-19T03:55:19.806Z,600.00
2024-04-19T03:56:19.840Z,597.00
2024-04-19T03:57:19.924Z,602.00
2024-04-19T03:58:19.923Z,600.00
2024-04-19T03:59:19.969Z,600.00
2024-04-19T04:00:19.988Z,603.00
2024-04-19T04:01:20.003Z,602.00
2024-04-19T04:02:20.075Z,599.00
2024-04-19T04:03:20.326Z,597.00
2024-04-19T04:04:20.163Z,602.00
2024-04-19T04:05:20.174Z,600.00
2024-04-19T04:06:20.239Z,600.00
2024-04-19T04:07:20.271Z,599.00
2024-04-19T04:08:20.339Z,600.00
2024-04-19T04:09:20.344Z,600.00
2024-04-19T04:10:20.434Z,601.00
2024-04-19T04:11:20.456Z,600.00
2024-04-19T04:12:20.477Z,604.00
2024-04-19T04:13:20.530Z,599.00
2024-04-19T04:14:20.581Z,598.00
2024-04-19T04:15:20.608Z,605.00
2024-04-19T04:16:20.654Z,601.00
2024-04-19T04:17:20.735Z,601.00
2024-04-19T04:18:20.906Z,600.00
2024-04-19T04:19:20.998Z,601.00
2024-04-19T04:20:20.870Z,603.00
2024-04-19T04:21:20.941Z,600.00
2024-04-19T04:22:20.967Z,603.00
2024-04-19T04:23:21.019Z,600.00
2024-04-19T04:24:21.102Z,606.00
2024-04-19T04:25:21.141Z,603.00
2024-04-19T04:26:21.172Z,604.00
2024-04-19T04:27:21.267Z,603.00
2024-04-19T04:28:21.325Z,608.00
2024-04-19T04:29:21.347Z,608.00
2024-04-19T04:30:21.433Z,609.00
2024-04-19T04:31:21.457Z,607.00
2024-04-19T04:32:21.555Z,607.00
2024-04-19T04:33:21.695Z,611.00
2024-04-19T04:34:29.015Z,600.00
2024-04-19T04:35:29.002Z,600.00
2024-04-19T04:36:28.997Z,600.00
2024-04-19T04:37:28.979Z,600.00
2024-04-19T04:38:28.981Z,600.00
2024-04-19T04:39:29.138Z,601.00
2024-04-19T04:40:29.043Z,601.00
2024-04-19T04:41:28.990Z,600.00
2024-04-19T04:42:29.024Z,600.00
2024-04-19T04:43:29.100Z,595.00
2024-04-19T04:44:28.994Z,587.00
2024-04-19T04:45:29.010Z,586.00
2024-04-19T04:46:28.998Z,581.00
2024-04-19T04:47:29.050Z,603.00
2024-04-19T04:48:29.065Z,600.00
2024-04-19T04:49:29.000Z,605.00
2024-04-19T05:12:50.694Z,608.00
2024-04-19T05:13:28.929Z,610.00
2024-04-19T05:14:28.782Z,624.00
2024-04-19T05:15:28.814Z,655.00
2024-04-19T05:16:28.800Z,754.00
2024-04-19T05:17:28.857Z,614.00
2024-04-19T05:18:28.913Z,638.00
2024-04-19T05:19:28.800Z,702.00
2024-04-19T05:20:30.635Z,861.00
2024-04-19T05:21:28.852Z,1085.00
2024-04-19T05:22:28.799Z,1123.00
2024-04-19T05:23:28.949Z,1134.00
2024-04-19T05:24:29.688Z,1127.00
2024-04-19T05:25:29.602Z,1121.00
2024-04-19T05:26:29.926Z,1119.00
2024-04-19T05:27:28.788Z,1103.00
2024-04-19T05:28:29.106Z,1090.00
2024-04-19T05:29:31.670Z,1078.00
2024-04-19T05:30:28.830Z,1058.00
2024-04-19T05:31:28.805Z,1053.00
2024-04-19T05:32:28.904Z,1046.00
2024-04-19T05:33:28.862Z,1026.00
2024-04-19T05:34:28.808Z,1032.00
2024-04-19T05:35:28.860Z,1014.00
2024-04-19T05:36:28.894Z,997.00
2024-04-19T05:37:28.827Z,994.00
2024-04-19T05:38:28.838Z,997.00
2024-04-19T05:39:28.851Z,988.00
2024-04-19T05:40:29.631Z,1003.00
2024-04-19T05:41:28.833Z,1005.00
2024-04-19T05:42:30.715Z,1000.00
2024-04-19T05:43:29.616Z,1000.00
2024-04-19T05:44:28.835Z,1002.00
2024-04-19T05:45:28.911Z,1007.00
2024-04-19T05:46:28.923Z,1011.00
2024-04-19T05:47:28.972Z,1006.00
2024-04-19T05:48:29.917Z,1000.00
2024-04-19T05:49:28.958Z,1000.00
2024-04-19T05:50:28.860Z,1000.00
2024-04-19T05:51:29.679Z,1002.00
2024-04-19T05:52:28.849Z,997.00
2024-04-19T05:53:28.876Z,1002.00
2024-04-19T05:54:29.042Z,1002.00
2024-04-19T05:55:28.873Z,1000.00
2024-04-19T05:56:28.918Z,1000.00
2024-04-19T05:57:28.953Z,982.00
2024-04-19T05:58:28.913Z,971.00
2024-04-19T05:59:28.919Z,964.00
2024-04-19T06:00:28.920Z,964.00
2024-04-19T06:01:29.048Z,956.00
2024-04-19T06:02:29.217Z,945.00
2024-04-19T06:03:29.168Z,961.00
2024-04-19T06:04:29.132Z,952.00
2024-04-19T06:05:29.191Z,952.00
2024-04-19T06:06:29.314Z,961.00
2024-04-19T06:07:29.411Z,977.00
2024-04-19T06:08:29.381Z,968.00
2024-04-19T06:09:29.483Z,979.00
2024-04-19T06:10:29.520Z,982.00
2024-04-19T06:11:29.624Z,978.00
2024-04-19T06:12:29.733Z,974.00
2024-04-19T06:13:29.728Z,959.00
2024-04-19T06:14:29.775Z,955.00
2024-04-19T06:15:29.901Z,948.00
2024-04-19T06:16:29.891Z,951.00
2024-04-19T06:17:30.021Z,921.00
2024-04-19T06:18:30.116Z,900.00
2024-04-19T06:19:30.147Z,874.00
2024-04-19T06:20:30.127Z,849.00
2024-04-19T06:21:30.316Z,819.00
2024-04-19T06:22:30.260Z,803.00
2024-04-19T06:23:30.303Z,782.00
2024-04-19T06:24:30.486Z,760.00
2024-04-19T06:25:30.420Z,742.00
2024-04-19T06:26:30.467Z,735.00
2024-04-19T06:27:30.561Z,706.00
2024-04-19T06:28:30.577Z,706.00
2024-04-19T06:29:30.661Z,682.00
2024-04-19T06:30:30.825Z,678.00
2024-04-19T06:31:30.780Z,661.00
2024-04-19T06:32:30.822Z,661.00
2024-04-19T06:33:31.195Z,657.00
2024-04-19T06:34:30.875Z,651.00
2024-04-19T06:35:31.059Z,642.00
2024-04-19T06:36:31.025Z,638.00
2024-04-19T06:37:31.109Z,625.00
2024-04-19T06:38:31.069Z,615.00
2024-04-19T06:39:31.106Z,606.00
2024-04-19T06:40:31.204Z,598.00
2024-04-19T06:41:31.118Z,590.00
2024-04-19T06:42:31.073Z,583.00
2024-04-19T06:43:31.083Z,578.00
2024-04-19T06:44:31.063Z,600.00
2024-04-19T06:45:31.118Z,600.00
2024-04-19T06:46:31.060Z,601.00
2024-04-19T06:47:31.124Z,600.00
2024-04-19T06:48:31.218Z,593.00
2024-04-19T06:49:31.084Z,592.00
2024-04-19T06:50:31.032Z,579.00
2024-04-19T06:51:31.708Z,576.00
2024-04-19T06:52:31.052Z,572.00
2024-04-19T06:53:31.170Z,567.00
2024-04-19T06:54:31.120Z,565.00
2024-04-19T06:55:31.029Z,593.00
2024-04-19T06:56:31.044Z,606.00
2024-04-19T06:57:31.076Z,602.00
2024-04-19T06:58:31.118Z,600.00
2024-04-19T06:59:31.017Z,602.00
2024-04-19T07:01:31.184Z,600.00
2024-04-19T07:02:31.245Z,600.00
2024-04-19T07:03:31.168Z,600.00
2024-04-19T07:04:31.405Z,604.00
2024-04-19T07:05:32.665Z,605.00
2024-04-19T07:06:38.861Z,603.00
2024-04-19T07:07:32.166Z,601.00
2024-04-19T07:08:31.116Z,595.00
2024-04-19T07:09:31.167Z,585.00
2024-04-19T07:10:31.152Z,581.00
2024-04-19T07:11:31.084Z,580.00
2024-04-19T07:12:31.146Z,600.00
2024-04-19T07:13:31.125Z,600.00
2024-04-19T07:14:31.108Z,598.00
2024-04-19T07:15:31.234Z,598.00
2024-04-19T07:16:31.077Z,597.00
2024-04-19T07:17:31.072Z,598.00
2024-04-19T07:18:31.065Z,595.00
2024-04-19T07:19:31.097Z,600.00
2024-04-19T07:20:31.344Z,603.00
2024-04-19T07:21:31.033Z,603.00
2024-04-19T07:22:31.033Z,603.00
2024-04-19T07:23:31.192Z,602.00
2024-04-19T07:24:31.029Z,601.00
2024-04-19T07:25:31.032Z,602.00
2024-04-19T07:26:31.012Z,600.00
2024-04-19T07:27:36.414Z,597.00
2024-04-19T07:28:30.977Z,600.00
2024-04-19T07:29:31.147Z,595.00
2024-04-19T07:30:31.038Z,597.00
2024-04-19T07:31:31.276Z,597.00
2024-04-19T07:32:31.019Z,600.00
2024-04-19T07:33:31.008Z,603.00
2024-04-19T07:34:30.997Z,605.00
2024-04-19T07:35:30.946Z,602.00
2024-04-19T07:36:37.089Z,602.00
2024-04-19T07:37:32.830Z,602.00
2024-04-19T07:38:31.037Z,602.00
2024-04-19T07:39:30.931Z,605.00
2024-04-19T07:40:31.052Z,607.00
2024-04-19T07:41:30.877Z,610.00
2024-04-19T07:42:31.683Z,614.00
2024-04-19T07:43:30.871Z,618.00
2024-04-19T07:44:30.960Z,617.00
2024-04-19T07:45:30.977Z,621.00
2024-04-19T07:46:30.916Z,620.00
2024-04-19T07:47:31.038Z,615.00
2024-04-19T07:48:31.234Z,620.00
2024-04-19T07:49:31.067Z,617.00
2024-04-19T07:50:30.989Z,615.00
2024-04-19T07:51:31.045Z,611.00
2024-04-19T07:52:31.045Z,612.00
2024-04-19T07:53:31.057Z,608.00
2024-04-19T07:54:31.204Z,604.00
2024-04-19T07:55:31.113Z,603.00
2024-04-19T07:56:31.101Z,602.00
2024-04-19T07:57:31.174Z,604.00
2024-04-19T07:58:31.146Z,603.00
2024-04-19T07:59:31.358Z,608.00
2024-04-19T08:00:31.347Z,610.00
2024-04-19T08:01:31.239Z,610.00
2024-04-19T08:02:31.295Z,617.00
2024-04-19T08:04:31.776Z,617.00
2024-04-19T08:05:31.260Z,624.00
2024-04-19T08:06:31.302Z,624.00
2024-04-19T08:07:38.993Z,625.00
2024-04-19T08:08:32.264Z,624.00
2024-04-19T08:09:31.741Z,625.00
2024-04-19T08:10:33.892Z,627.00
2024-04-19T08:11:34.289Z,628.00
2024-04-19T08:12:31.286Z,624.00
2024-04-19T08:13:31.212Z,625.00
2024-04-19T08:14:31.177Z,624.00
2024-04-19T08:15:31.212Z,618.00
2024-04-19T08:16:32.187Z,616.00
2024-04-19T08:17:31.212Z,620.00
2024-04-19T08:18:31.180Z,613.00
2024-04-19T08:19:31.160Z,613.00
2024-04-19T08:20:31.157Z,614.00
2024-04-19T08:21:31.867Z,609.00
2024-04-19T08:22:31.165Z,604.00
2024-04-19T08:23:31.120Z,602.00
2024-04-19T08:24:31.103Z,600.00
2024-04-19T08:25:31.165Z,601.00
2024-04-19T08:26:31.114Z,600.00
2024-04-19T08:27:31.080Z,600.00
2024-04-19T08:28:31.177Z,600.00
2024-04-19T08:29:35.510Z,601.00
2024-04-19T08:30:32.157Z,596.00
2024-04-19T08:31:31.086Z,590.00
2024-04-19T08:32:31.214Z,584.00
2024-04-19T08:33:31.017Z,582.00
2024-04-19T08:34:30.980Z,582.00
2024-04-19T08:35:30.983Z,600.00
2024-04-19T08:36:31.164Z,604.00
2024-04-19T08:37:30.965Z,601.00
2024-04-19T08:38:30.962Z,601.00
2024-04-19T08:39:31.746Z,601.00
2024-04-19T08:40:31.698Z,601.00
2024-04-19T08:41:30.978Z,603.00
2024-04-19T08:42:30.991Z,600.00
2024-04-19T08:43:30.943Z,603.00
2024-04-19T08:44:30.937Z,600.00
2024-04-19T08:45:31.043Z,600.00
2024-04-19T08:46:30.929Z,593.00
2024-04-19T08:47:31.057Z,598.00
2024-04-19T08:48:31.832Z,584.00
2024-04-19T08:49:32.762Z,576.00
2024-04-19T08:50:30.986Z,602.00
2024-04-19T08:51:44.556Z,600.00
2024-04-19T08:52:50.349Z,598.00
2024-04-19T08:53:31.908Z,580.00
2024-04-19T08:54:30.879Z,582.00
2024-04-19T08:55:30.835Z,575.00
2024-04-19T08:56:30.827Z,569.00
2024-04-19T08:57:30.813Z,557.00
2024-04-19T08:58:30.797Z,590.00
2024-04-19T08:59:30.889Z,601.00
2024-04-19T09:00:30.805Z,600.00
2024-04-19T09:01:30.870Z,600.00
2024-04-19T09:02:30.764Z,600.00
2024-04-19T09:03:30.854Z,602.00
2024-04-19T09:04:30.848Z,600.00
2024-04-19T09:05:30.731Z,600.00
2024-04-19T09:06:30.751Z,600.00
2024-04-19T09:07:30.737Z,600.00
2024-04-19T09:08:30.698Z,602.00
2024-04-19T09:09:30.728Z,601.00
2024-04-19T09:10:30.679Z,600.00
2024-04-19T09:11:30.733Z,600.00
2024-04-19T09:12:30.733Z,600.00
2024-04-19T09:13:30.654Z,600.00
2024-04-19T09:14:30.675Z,602.00
2024-04-19T09:15:30.685Z,600.00
2024-04-19T09:16:30.654Z,605.00
2024-04-19T09:17:30.778Z,605.00
2024-04-19T09:18:30.640Z,605.00
2024-04-19T09:19:30.629Z,608.00
2024-04-19T09:20:30.628Z,612.00
2024-04-19T09:21:30.661Z,617.00
2024-04-19T09:22:31.225Z,621.00
2024-04-19T09:23:30.620Z,626.00
2024-04-19T09:24:31.032Z,633.00
2024-04-19T09:25:30.591Z,640.00
2024-04-19T09:26:31.216Z,648.00
2024-04-19T09:27:30.571Z,641.00
2024-04-19T09:28:31.285Z,653.00
2024-04-19T09:29:30.556Z,656.00
2024-04-19T09:30:30.630Z,657.00
2024-04-19T09:31:31.214Z,662.00
2024-04-19T09:32:30.590Z,693.00
2024-04-19T09:33:30.529Z,736.00
2024-04-19T09:34:30.449Z,798.00
2024-04-19T09:35:30.440Z,797.00
2024-04-19T09:36:30.451Z,827.00
2024-04-19T09:37:30.434Z,847.00
2024-04-19T09:38:30.401Z,892.00
2024-04-19T09:39:30.405Z,914.00
2024-04-19T09:40:31.236Z,948.00
2024-04-19T09:41:30.370Z,983.00
2024-04-19T09:42:30.440Z,1022.00
2024-04-19T09:43:30.452Z,1059.00
2024-04-19T09:44:30.384Z,1071.00
2024-04-19T09:45:30.379Z,1121.00
2024-04-19T09:46:30.386Z,1122.00
2024-04-19T09:47:31.265Z,1131.00
2024-04-19T09:48:30.515Z,1147.00
2024-04-19T09:49:30.652Z,1192.00
2024-04-19T09:50:30.419Z,1272.00
2024-04-19T09:51:30.348Z,1328.00
2024-04-19T09:52:32.237Z,1360.00
2024-04-19T09:53:30.502Z,1369.00
2024-04-19T09:54:30.776Z,1421.00
2024-04-19T09:55:30.409Z,1467.00
2024-04-19T09:56:30.340Z,1470.00
2024-04-19T09:57:30.270Z,1494.00
2024-04-19T09:58:30.239Z,1533.00
2024-04-19T09:59:30.249Z,1560.00
2024-04-19T10:00:31.037Z,1588.00
2024-04-19T10:01:30.445Z,1616.00
2024-04-19T10:02:36.371Z,1644.00
2024-04-19T10:03:31.249Z,1645.00
2024-04-19T10:04:30.276Z,1654.00
2024-04-19T10:05:30.126Z,1669.00
2024-04-19T10:06:30.207Z,1708.00
2024-04-19T10:07:30.340Z,1778.00
2024-04-19T10:08:30.073Z,1804.00
2024-04-19T10:09:30.166Z,1797.00
2024-04-19T10:10:30.108Z,1804.00
2024-04-19T10:11:30.156Z,1836.00
2024-04-19T10:12:30.130Z,1839.00
2024-04-19T10:13:30.105Z,1854.00
2024-04-19T10:14:30.046Z,1872.00
2024-04-19T10:15:30.062Z,1879.00
2024-04-19T10:16:30.007Z,1895.00
2024-04-19T10:18:30.305Z,1917.00
2024-04-19T10:19:36.692Z,1926.00
2024-04-19T10:20:30.942Z,1927.00
2024-04-19T10:21:29.986Z,1931.00
2024-04-19T10:22:29.945Z,1943.00
2024-04-19T10:23:30.111Z,1972.00
2024-04-19T10:24:29.872Z,1994.00
2024-04-19T10:25:29.840Z,2003.00
2024-04-19T10:26:29.855Z,1998.00
2024-04-19T10:27:30.055Z,2007.00
2024-04-19T10:28:29.824Z,2012.00
2024-04-19T10:29:29.796Z,2033.00
2024-04-19T10:30:35.972Z,2048.00
2024-04-19T10:31:30.774Z,2005.00
2024-04-19T10:32:29.880Z,2006.00
2024-04-19T10:33:29.746Z,2014.00
2024-04-19T10:34:29.706Z,2032.00
2024-04-19T10:35:29.676Z,2065.00
2024-04-19T10:36:29.822Z,2124.00
2024-04-19T10:37:29.644Z,2139.00
2024-04-19T10:38:29.638Z,2148.00
2024-04-19T10:39:29.927Z,2165.00
2024-04-19T10:40:29.614Z,2177.00
2024-04-19T10:41:29.642Z,2191.00
2024-04-19T10:42:29.629Z,2203.00
2024-04-19T10:43:29.648Z,2231.00
2024-04-19T10:44:29.656Z,2234.00
2024-04-19T10:45:29.572Z,2258.00
2024-04-19T10:46:29.517Z,2273.00
2024-04-19T10:47:29.543Z,2288.00
2024-04-19T10:48:30.915Z,2308.00
2024-04-19T10:49:29.765Z,2329.00
2024-04-19T10:50:29.603Z,2329.00
2024-04-19T10:51:29.467Z,2333.00
2024-04-19T10:52:29.615Z,2348.00
2024-04-19T10:53:29.535Z,2331.00
2024-04-19T10:54:30.258Z,2340.00
2024-04-19T10:55:29.367Z,2355.00
2024-04-19T10:56:29.377Z,2383.00
2024-04-19T10:57:29.351Z,2439.00
2024-04-19T10:58:29.287Z,2454.00
2024-04-19T10:59:29.285Z,2467.00
2024-04-19T11:00:29.270Z,2480.00
2024-04-19T11:01:29.266Z,2481.00
2024-04-19T11:02:29.296Z,2485.00
2024-04-19T11:03:29.199Z,2496.00
2024-04-19T11:04:29.892Z,2527.00
2024-04-19T11:05:29.144Z,2570.00
2024-04-19T11:06:29.140Z,2583.00
2024-04-19T11:07:29.072Z,2584.00
2024-04-19T11:08:29.074Z,2589.00
2024-04-19T11:09:29.074Z,2596.00
2024-04-19T11:10:29.044Z,2626.00
2024-04-19T11:11:29.043Z,2657.00
2024-04-19T11:12:29.026Z,2682.00
2024-04-19T11:13:28.999Z,2685.00
2024-04-19T11:14:28.947Z,2694.00
2024-04-19T11:15:29.154Z,2709.00
2024-04-19T11:16:28.923Z,2710.00
2024-04-19T11:17:28.985Z,2714.00
2024-04-19T11:18:29.155Z,2722.00
2024-04-19T11:19:28.893Z,2744.00
2024-04-19T11:20:28.869Z,2778.00
2024-04-19T11:21:28.836Z,2785.00
2024-04-19T11:22:28.868Z,2788.00
2024-04-19T11:23:28.752Z,2793.00
2024-04-19T11:24:28.777Z,2794.00
2024-04-19T11:25:28.746Z,2812.00
2024-04-19T11:26:28.735Z,2818.00
2024-04-19T11:27:28.779Z,2825.00
2024-04-19T11:28:28.799Z,2824.00
2024-04-19T11:29:29.147Z,2828.00
2024-04-19T11:30:28.909Z,2825.00
2024-04-19T11:31:29.007Z,2838.00
2024-04-19T11:32:29.014Z,2847.00
2024-04-19T11:33:29.846Z,2841.00
2024-04-19T11:34:29.100Z,2850.00
2024-04-19T11:35:29.045Z,2855.00
2024-04-19T11:36:29.273Z,2855.00
2024-04-19T11:37:29.094Z,2862.00
2024-04-19T11:38:29.775Z,2855.00
2024-04-19T11:39:29.275Z,2881.00
2024-04-19T11:40:29.168Z,2872.00
2024-04-19T11:41:29.103Z,2881.00
2024-04-19T11:42:29.106Z,2883.00
2024-04-19T11:43:29.094Z,2894.00
2024-04-19T11:44:29.058Z,2882.00
2024-04-19T11:45:29.087Z,2886.00
2024-04-19T11:46:28.995Z,2897.00
2024-04-19T11:47:29.012Z,2883.00
2024-04-19T11:48:29.246Z,2891.00
2024-04-19T11:49:28.992Z,2904.00
2024-04-19T11:50:28.906Z,2923.00
2024-04-19T11:51:28.928Z,2884.00
2024-04-19T11:52:28.874Z,2894.00
2024-04-19T11:53:28.851Z,2911.00
2024-04-19T11:54:28.883Z,2945.00
2024-04-19T11:55:28.836Z,2987.00
2024-04-19T11:56:28.780Z,2987.00
2024-04-19T11:57:28.754Z,2988.00
2024-04-19T11:58:28.683Z,3003.00
2024-04-19T11:59:28.672Z,2999.00
2024-04-19T12:00:28.665Z,2998.00
2024-04-19T12:01:28.695Z,3003.00
2024-04-19T12:02:28.646Z,2997.00
2024-04-19T12:03:28.726Z,3008.00
2024-04-19T12:04:28.808Z,3006.00
2024-04-19T12:05:28.793Z,2997.00
2024-04-19T12:06:28.798Z,3005.00
2024-04-19T12:07:28.786Z,2997.00
2024-04-19T12:08:28.833Z,3001.00
2024-04-19T12:09:28.918Z,3006.00
2024-04-19T12:10:28.839Z,3003.00
2024-04-19T12:11:28.902Z,2991.00
2024-04-19T12:14:13.286Z,3003.00
2024-04-19T12:15:13.927Z,3003.00
2024-04-19T12:17:30.239Z,3008.00
2024-04-19T12:18:29.442Z,3015.00
2024-04-19T12:19:28.923Z,3029.00
2024-04-19T12:20:41.802Z,3057.00
2024-04-19T12:21:29.940Z,3005.00
2024-04-19T12:22:30.090Z,3011.00
2024-04-19T12:23:29.747Z,3022.00
2024-04-19T12:24:29.222Z,3043.00
2024-04-19T12:25:29.405Z,3076.00
2024-04-19T12:26:29.058Z,3070.00
2024-04-19T12:27:28.981Z,3079.00
2024-04-19T12:28:28.810Z,3067.00
2024-04-19T12:29:28.827Z,3069.00
2024-04-19T12:30:28.774Z,3065.00
2024-04-19T12:31:28.747Z,3069.00
2024-04-19T12:32:28.760Z,3069.00
2024-04-19T12:33:28.816Z,3071.00
2024-04-19T12:34:28.699Z,3073.00
2024-04-19T12:35:28.638Z,3079.00
2024-04-19T12:36:28.646Z,3080.00
2024-04-19T12:37:28.650Z,3081.00
2024-04-19T12:38:29.326Z,3076.00
2024-04-19T12:39:28.615Z,3072.00
2024-04-19T12:40:28.544Z,3072.00
2024-04-19T12:41:28.487Z,3068.00
2024-04-19T12:42:28.480Z,3059.00
2024-04-19T12:43:28.466Z,3052.00
2024-04-19T12:44:28.424Z,3058.00
2024-04-19T12:45:28.482Z,3044.00
2024-04-19T12:46:28.469Z,3043.00
2024-04-19T12:47:28.588Z,3048.00
2024-04-19T12:48:28.717Z,3045.00
2024-04-19T12:49:28.582Z,3041.00